createdAt,value
2019-04-21T00:01:18.252Z,11.25
2019-04-21T00:03:53.231Z,16.97
2019-04-21T00:06:43.952Z,14.63
2019-04-21T00:09:14.014Z,15.00
2019-04-21T00:11:41.302Z,11.25
2019-04-21T00:14:05.753Z,12.37
2019-04-21T00:16:32.142Z,11.05
2019-04-21T00:19:24.690Z,15.15
2019-04-21T00:21:56.381Z,11.90
2019-04-21T00:24:33.708Z,12.60
2019-04-21T00:27:13.894Z,13.50
2019-04-21T00:29:49.153Z,10.15
2019-04-21T00:32:11.487Z,13.72
2019-04-21T00:34:27.991Z,12.13
2019-04-21T00:37:11.064Z,11.10
2019-04-21T00:39:56.980Z,12.93
2019-04-21T00:42:19.952Z,11.08
2019-04-21T00:44:51.318Z,11.83
2019-04-21T00:47:26.738Z,11.78
2019-04-21T00:49:56.494Z,13.13
2019-04-21T00:52:57.583Z,10.05
2019-04-21T00:55:36.504Z,12.65
2019-04-21T00:58:03.499Z,13.28
2019-04-21T01:00:36.366Z,12.53
2019-04-21T01:03:09.394Z,12.00
2019-04-21T01:05:43.942Z,12.60
2019-04-21T01:08:04.700Z,11.90
2019-04-21T01:10:28.665Z,12.23
2019-04-21T01:13:14.000Z,11.05
2019-04-21T01:15:47.433Z,9.98
2019-04-21T01:18:09.090Z,9.98
2019-04-21T01:20:20.819Z,10.85
2019-04-21T01:22:51.509Z,10.78
2019-04-21T01:25:30.266Z,11.95
2019-04-21T01:28:09.975Z,9.73
2019-04-21T01:30:44.843Z,11.35
2019-04-21T01:33:15.344Z,9.13
2019-04-21T01:35:44.139Z,10.58
2019-04-21T01:38:24.168Z,8.65
2019-04-21T01:40:57.164Z,11.15
2019-04-21T01:43:23.432Z,11.33
2019-04-21T01:45:53.487Z,10.20
2019-04-21T01:48:21.537Z,8.80
2019-04-21T01:50:58.181Z,11.45
2019-04-21T01:53:36.465Z,12.25
2019-04-21T01:56:30.492Z,10.13
2019-04-21T01:58:53.240Z,11.48
2019-04-21T02:01:34.537Z,11.40
2019-04-21T02:04:02.730Z,8.70
2019-04-21T02:06:33.403Z,10.28
2019-04-21T02:09:05.125Z,10.28
2019-04-21T02:11:43.354Z,9.40
2019-04-21T02:14:11.635Z,9.75
2019-04-21T02:16:40.542Z,8.75
2019-04-21T02:19:04.813Z,9.33
2019-04-21T02:21:37.024Z,9.85
2019-04-21T02:24:23.926Z,9.28
2019-04-21T02:26:45.740Z,10.60
2019-04-21T02:29:25.402Z,9.18
2019-04-21T02:32:07.920Z,8.10
2019-04-21T02:34:37.405Z,8.63
2019-04-21T02:39:29.655Z,10.58
2019-04-21T02:44:37.653Z,8.50
2019-04-21T02:46:54.584Z,10.65
2019-04-21T02:52:18.235Z,9.55
2019-04-21T03:00:06.428Z,7.42
2019-04-21T03:02:54.691Z,8.80
2019-04-21T03:13:21.600Z,9.78
2019-04-21T03:15:52.923Z,8.38
2019-04-21T03:18:12.977Z,9.75
2019-04-21T03:20:42.161Z,7.37
2019-04-21T03:23:36.648Z,7.67
2019-04-21T03:28:27.859Z,9.18
2019-04-21T03:38:31.878Z,8.93
2019-04-21T03:40:48.882Z,8.28
2019-04-21T03:43:31.722Z,9.28
2019-04-21T03:46:01.251Z,9.75
2019-04-21T03:48:36.184Z,9.65
2019-04-21T03:50:56.331Z,8.00
2019-04-21T03:53:31.349Z,9.45
2019-04-21T03:58:50.486Z,9.58
2019-04-21T04:04:05.793Z,8.83
2019-04-21T04:06:57.076Z,11.65
2019-04-21T04:09:26.188Z,11.63
2019-04-21T04:16:59.411Z,7.58
2019-04-21T04:19:26.364Z,9.05
2019-04-21T04:21:59.113Z,12.40
2019-04-21T04:24:39.528Z,7.33
2019-04-21T04:27:00.966Z,7.80
2019-04-21T04:29:24.067Z,6.58
2019-04-21T04:31:53.482Z,6.85
2019-04-21T04:34:29.587Z,4.95
2019-04-21T04:37:05.359Z,7.53
2019-04-21T04:40:05.699Z,4.85
2019-04-21T04:45:25.725Z,7.22
2019-04-21T04:47:36.977Z,6.78
2019-04-21T04:50:22.589Z,8.13
2019-04-21T04:57:51.280Z,6.53
2019-04-21T05:12:43.845Z,6.92
2019-04-21T05:15:12.757Z,5.90
2019-04-21T05:17:43.520Z,4.33
2019-04-21T05:22:42.631Z,5.50
2019-04-21T05:25:08.673Z,11.15
2019-04-21T05:27:38.648Z,7.47
2019-04-21T05:30:29.576Z,38.70
2019-04-21T05:33:23.416Z,18.70
2019-04-21T05:35:51.935Z,12.43
2019-04-21T05:38:31.549Z,11.70
2019-04-21T05:40:55.165Z,10.60
2019-04-21T05:43:41.746Z,7.70
2019-04-21T05:46:12.423Z,8.88
2019-04-21T05:48:47.774Z,9.95
2019-04-21T05:51:18.133Z,6.00
2019-04-21T05:53:46.716Z,8.95
2019-04-21T05:56:27.254Z,9.28
2019-04-21T05:58:52.451Z,12.50
2019-04-21T06:01:31.472Z,16.25
2019-04-21T06:04:01.736Z,8.28
2019-04-21T06:06:31.033Z,14.43
2019-04-21T06:08:53.967Z,8.43
2019-04-21T06:11:30.679Z,6.78
2019-04-21T06:14:04.411Z,12.25
2019-04-21T06:16:41.311Z,13.90
2019-04-21T06:19:06.688Z,9.10
2019-04-21T06:21:35.963Z,11.10
2019-04-21T06:24:02.514Z,13.00
2019-04-21T06:29:02.771Z,10.50
2019-04-21T06:32:02.381Z,11.30
2019-04-21T06:34:11.373Z,15.78
2019-04-21T06:36:57.302Z,9.28
2019-04-21T06:39:28.332Z,9.53
2019-04-21T06:41:55.674Z,10.58
2019-04-21T06:44:24.016Z,11.53
2019-04-21T06:47:02.653Z,11.05
2019-04-21T06:49:27.408Z,8.20
2019-04-21T06:52:11.304Z,15.23
2019-04-21T06:54:33.898Z,10.58
2019-04-21T06:56:56.582Z,10.75
2019-04-21T06:59:37.200Z,12.33
2019-04-21T07:02:28.716Z,10.68
2019-04-21T07:04:39.561Z,11.97
2019-04-21T07:07:05.617Z,13.60
2019-04-21T07:09:36.500Z,9.15
2019-04-21T07:12:06.206Z,12.15
2019-04-21T07:14:54.725Z,11.60
2019-04-21T07:22:21.095Z,10.50
2019-04-21T07:24:45.839Z,8.58
2019-04-21T07:27:15.231Z,9.63
2019-04-21T07:29:50.559Z,12.68
2019-04-21T07:32:18.444Z,9.65
2019-04-21T07:34:52.275Z,11.22
2019-04-21T07:37:19.745Z,9.53
2019-04-21T07:39:45.209Z,9.85
2019-04-21T07:42:17.469Z,10.05
2019-04-21T07:44:46.369Z,10.85
2019-04-21T07:47:27.133Z,9.63
2019-04-21T07:50:07.092Z,11.63
2019-04-21T07:57:53.133Z,10.30
2019-04-21T08:00:30.900Z,15.40
2019-04-21T08:02:54.457Z,10.68
2019-04-21T08:05:27.946Z,9.50
2019-04-21T08:07:55.803Z,9.10
2019-04-21T08:10:26.301Z,11.65
2019-04-21T08:13:01.175Z,10.28
2019-04-21T08:15:38.654Z,9.20
2019-04-21T08:18:03.727Z,12.30
2019-04-21T08:20:29.118Z,8.80
2019-04-21T08:23:07.620Z,9.35
2019-04-21T08:25:50.825Z,11.08
2019-04-21T08:28:05.368Z,9.53
2019-04-21T08:30:38.109Z,12.15
2019-04-21T08:33:18.780Z,9.18
2019-04-21T08:38:13.569Z,11.95
2019-04-21T08:40:51.084Z,9.98
2019-04-21T08:43:21.711Z,8.73
2019-04-21T08:45:49.806Z,8.85
2019-04-21T08:48:18.183Z,10.95
2019-04-21T08:50:55.054Z,13.28
2019-04-21T08:53:22.651Z,12.73
2019-04-21T08:56:21.711Z,8.18
2019-04-21T08:59:30.925Z,11.25
2019-04-21T09:02:29.729Z,10.08
2019-04-21T09:04:52.774Z,10.38
2019-04-21T09:07:33.136Z,9.98
2019-04-21T09:09:58.046Z,11.45
2019-04-21T09:12:33.128Z,11.25
2019-04-21T09:15:02.717Z,11.15
2019-04-21T09:17:25.165Z,10.10
2019-04-21T09:22:37.136Z,8.70
2019-04-21T09:25:01.466Z,10.08
2019-04-21T09:27:32.302Z,10.15
2019-04-21T09:29:55.314Z,9.90
2019-04-21T09:32:23.896Z,10.05
2019-04-21T09:34:52.738Z,10.90
2019-04-21T09:37:37.177Z,8.35
2019-04-21T09:39:55.905Z,9.60
2019-04-21T09:42:32.843Z,7.05
2019-04-21T09:45:00.874Z,7.12
2019-04-21T09:47:36.533Z,16.37
2019-04-21T09:49:58.556Z,8.40
2019-04-21T09:52:38.907Z,11.18
2019-04-21T09:55:06.881Z,10.30
2019-04-21T09:57:38.181Z,9.38
2019-04-21T10:00:12.000Z,9.78
2019-04-21T10:02:42.302Z,9.10
2019-04-21T10:05:05.341Z,11.25
2019-04-21T10:07:39.068Z,8.88
2019-04-21T10:10:06.396Z,10.38
2019-04-21T10:12:37.244Z,8.15
2019-04-21T10:15:08.414Z,14.05
2019-04-21T10:17:41.911Z,8.28
2019-04-21T10:20:11.798Z,9.58
2019-04-21T10:22:41.464Z,10.48
2019-04-21T10:25:10.851Z,9.05
2019-04-21T10:27:41.272Z,8.90
2019-04-21T10:30:11.966Z,8.08
2019-04-21T10:32:42.653Z,10.58
2019-04-21T10:35:12.869Z,8.90
2019-04-21T10:37:53.643Z,7.12
2019-04-21T10:40:13.800Z,7.65
2019-04-21T10:42:43.599Z,8.53
2019-04-21T10:45:13.027Z,7.20
2019-04-21T10:47:43.041Z,7.55
2019-04-21T10:50:13.096Z,7.87
2019-04-21T10:53:16.705Z,7.85
2019-04-21T10:56:01.475Z,8.75
2019-04-21T10:58:36.401Z,7.37
2019-04-21T11:01:23.255Z,7.55
2019-04-21T11:04:27.080Z,6.90
2019-04-21T11:06:52.663Z,8.90
2019-04-21T11:09:22.153Z,6.78
2019-04-21T11:11:53.381Z,7.40
2019-04-21T11:14:23.165Z,8.20
2019-04-21T11:16:53.420Z,7.45
2019-04-21T11:19:24.271Z,8.38
2019-04-21T11:21:54.684Z,7.17
2019-04-21T11:24:25.028Z,7.35
2019-04-21T11:26:55.821Z,9.18
2019-04-21T11:29:26.349Z,6.58
2019-04-21T11:31:56.893Z,7.17
2019-04-21T11:34:27.313Z,6.78
2019-04-21T11:36:56.748Z,6.42
2019-04-21T11:39:39.155Z,6.22
2019-04-21T11:42:01.707Z,6.55
2019-04-21T11:44:31.254Z,7.55
2019-04-21T11:47:00.642Z,7.22
2019-04-21T11:49:32.388Z,7.90
2019-04-21T11:52:02.840Z,5.55
2019-04-21T11:54:32.903Z,7.45
2019-04-21T11:57:11.732Z,7.15
2019-04-21T11:59:33.551Z,7.10
2019-04-21T12:02:03.551Z,6.65
2019-04-21T12:04:33.696Z,4.87
2019-04-21T12:07:03.112Z,6.33
2019-04-21T12:09:33.346Z,8.78
2019-04-21T12:12:03.404Z,7.75
2019-04-21T12:14:34.103Z,6.72
2019-04-21T12:17:03.626Z,6.47
2019-04-21T12:19:33.060Z,6.83
2019-04-21T12:22:10.988Z,7.42
2019-04-21T12:24:36.830Z,5.78
2019-04-21T12:27:07.777Z,5.28
2019-04-21T12:29:37.810Z,5.50
2019-04-21T12:32:32.164Z,5.65
2019-04-21T12:35:01.912Z,7.35
2019-04-21T12:37:31.307Z,6.67
2019-04-21T12:40:00.885Z,6.80
2019-04-21T12:42:30.406Z,5.78
2019-04-21T12:44:59.838Z,7.05
2019-04-21T12:47:30.204Z,5.62
2019-04-21T12:49:59.673Z,5.85
2019-04-21T12:52:29.488Z,5.15
2019-04-21T12:54:59.687Z,5.70
2019-04-21T12:57:31.489Z,5.80
2019-04-21T13:00:00.566Z,5.03
2019-04-21T13:02:30.038Z,6.03
2019-04-21T13:04:59.779Z,7.00
2019-04-21T13:07:29.196Z,6.65
2019-04-21T13:10:00.036Z,5.53
2019-04-21T13:12:29.523Z,6.03
2019-04-21T13:14:59.601Z,5.37
2019-04-21T13:17:31.078Z,6.05
2019-04-21T13:20:01.183Z,7.25
2019-04-21T13:22:32.002Z,7.85
2019-04-21T13:25:02.429Z,6.28
2019-04-21T13:27:31.959Z,5.90
2019-04-21T13:30:02.196Z,5.90
2019-04-21T13:32:33.079Z,5.35
2019-04-21T13:35:03.342Z,7.30
2019-04-21T13:37:33.282Z,5.95
2019-04-21T13:40:44.959Z,5.03
2019-04-21T13:43:03.922Z,5.80
2019-04-21T13:45:32.077Z,5.60
2019-04-21T13:48:01.682Z,7.30
2019-04-21T13:50:31.324Z,6.40
2019-04-21T13:53:00.979Z,7.12
2019-04-21T13:55:31.865Z,6.70
2019-04-21T13:58:02.092Z,6.90
2019-04-21T14:00:31.911Z,9.18
2019-04-21T14:03:02.823Z,7.25
2019-04-21T14:05:32.673Z,7.55
2019-04-21T14:08:03.106Z,5.22
2019-04-21T14:10:33.514Z,5.40
2019-04-21T14:13:02.929Z,5.37
2019-04-21T14:15:32.502Z,5.05
2019-04-21T14:18:02.811Z,5.85
2019-04-21T14:20:33.292Z,5.40
2019-04-21T14:23:13.511Z,4.92
2019-04-21T14:25:35.305Z,3.98
2019-04-21T14:28:06.100Z,3.55
2019-04-21T14:30:36.516Z,8.23
2019-04-21T14:33:05.955Z,3.95
2019-04-21T14:35:36.633Z,4.75
2019-04-21T14:38:06.937Z,7.70
2019-04-21T14:40:37.356Z,9.18
2019-04-21T14:43:08.028Z,9.15
2019-04-21T14:46:02.962Z,9.15
2019-04-21T14:49:03.618Z,8.33
2019-04-21T14:51:47.532Z,13.03
2019-04-21T14:54:44.586Z,10.32
2019-04-21T14:57:15.416Z,13.70
2019-04-21T14:59:45.022Z,10.53
2019-04-21T15:02:15.758Z,10.85
2019-04-21T15:04:45.905Z,13.88
2019-04-21T15:07:15.368Z,11.33
2019-04-21T15:09:46.361Z,15.60
2019-04-21T15:12:16.286Z,15.55
2019-04-21T15:14:47.672Z,18.45
2019-04-21T15:17:19.519Z,12.07
2019-04-21T15:19:50.975Z,18.23
2019-04-21T15:22:20.725Z,16.85
2019-04-21T15:24:52.123Z,15.08
2019-04-21T15:27:25.139Z,20.65
2019-04-21T15:29:54.554Z,13.53
2019-04-21T15:32:24.292Z,14.28
2019-04-21T15:34:54.093Z,28.45
2019-04-21T15:37:24.133Z,26.33
2019-04-21T15:39:53.567Z,27.87
2019-04-21T15:42:24.340Z,25.00
2019-04-21T15:44:54.631Z,20.88
2019-04-21T15:47:24.101Z,22.87
2019-04-21T15:50:04.630Z,24.37
2019-04-21T15:52:29.881Z,21.65
2019-04-21T15:55:18.902Z,22.55
2019-04-21T15:58:00.589Z,20.32
2019-04-21T16:00:40.513Z,19.40
2019-04-21T16:03:08.793Z,18.80
2019-04-21T16:05:38.626Z,32.10
2019-04-21T16:08:08.095Z,20.43
2019-04-21T16:10:45.327Z,24.15
2019-04-21T16:13:09.808Z,29.07
2019-04-21T16:15:40.760Z,25.55
2019-04-21T16:18:10.350Z,22.82
2019-04-21T16:20:39.954Z,17.77
2019-04-21T16:23:10.718Z,25.23
2019-04-21T16:25:41.141Z,24.70
2019-04-21T16:28:11.138Z,22.15
2019-04-21T16:30:40.816Z,22.35
2019-04-21T16:33:10.272Z,25.50
2019-04-21T16:35:40.001Z,19.40
2019-04-21T16:38:09.461Z,23.15
2019-04-21T16:40:46.873Z,20.20
2019-04-21T16:43:10.131Z,18.98
2019-04-21T16:45:41.007Z,20.52
2019-04-21T16:48:10.579Z,20.50
2019-04-21T16:50:41.423Z,18.50
2019-04-21T16:53:17.489Z,21.25
2019-04-21T16:55:51.190Z,18.52
2019-04-21T16:58:30.824Z,23.60
2019-04-21T17:01:10.231Z,16.75
2019-04-21T17:03:34.808Z,19.65
2019-04-21T17:06:05.142Z,19.02
2019-04-21T17:08:36.710Z,20.70
2019-04-21T17:11:16.471Z,15.93
2019-04-21T17:13:38.303Z,18.32
2019-04-21T17:16:36.459Z,15.75
2019-04-21T17:18:50.822Z,15.35
2019-04-21T17:21:11.114Z,20.15
2019-04-21T17:23:41.386Z,16.52
2019-04-21T17:26:11.070Z,17.35
2019-04-21T17:28:40.790Z,13.30
2019-04-21T17:31:10.977Z,17.57
2019-04-21T17:33:41.413Z,15.28
2019-04-21T17:36:11.504Z,15.15
2019-04-21T17:38:41.859Z,14.55
2019-04-21T17:41:21.847Z,15.90
2019-04-21T17:43:43.657Z,20.30
2019-04-21T17:46:20.332Z,17.17
2019-04-21T17:48:45.149Z,13.22
2019-04-21T17:51:31.964Z,14.05
2019-04-21T17:54:16.717Z,15.63
2019-04-21T17:57:16.285Z,14.78
2019-04-21T17:59:47.639Z,14.78
2019-04-21T18:02:02.245Z,17.55
2019-04-21T18:04:31.037Z,16.57
2019-04-21T18:07:08.143Z,17.12
2019-04-21T18:09:51.120Z,12.82
2019-04-21T18:12:12.307Z,14.33
2019-04-21T18:14:28.476Z,14.50
2019-04-21T18:16:58.323Z,15.48
2019-04-21T18:19:31.022Z,17.98
2019-04-21T18:22:31.277Z,12.50
2019-04-21T18:25:03.674Z,14.70
2019-04-21T18:27:28.352Z,17.02
2019-04-21T18:30:02.494Z,12.93
2019-04-21T18:32:38.555Z,15.10
2019-04-21T18:35:22.726Z,16.02
2019-04-21T18:38:22.757Z,11.80
2019-04-21T18:40:49.060Z,12.95
2019-04-21T18:46:43.813Z,13.85
2019-04-21T18:49:11.209Z,13.03
2019-04-21T18:52:06.863Z,14.50
2019-04-21T18:54:45.834Z,13.75
2019-04-21T18:57:10.579Z,13.75
2019-04-21T18:59:37.793Z,14.60
2019-04-21T19:02:06.870Z,16.37
2019-04-21T19:04:37.123Z,15.78
2019-04-21T19:07:20.073Z,16.07
2019-04-21T19:12:47.347Z,14.15
2019-04-21T19:14:55.001Z,13.13
2019-04-21T19:18:05.242Z,13.15
2019-04-21T19:20:10.433Z,13.80
2019-04-21T19:22:32.520Z,13.70
2019-04-21T19:25:07.293Z,13.38
2019-04-21T19:27:31.109Z,13.75
2019-04-21T19:30:17.701Z,12.53
2019-04-21T19:32:33.488Z,12.95
2019-04-21T19:34:54.897Z,14.45
2019-04-21T19:37:25.906Z,13.55
2019-04-21T19:40:05.674Z,14.05
2019-04-21T19:42:35.416Z,15.03
2019-04-21T19:45:10.777Z,13.10
2019-04-21T19:47:44.986Z,14.83
2019-04-21T19:50:16.853Z,15.08
2019-04-21T19:52:40.546Z,15.90
2019-04-21T19:55:00.576Z,14.65
2019-04-21T19:57:31.339Z,14.70
2019-04-21T20:00:04.322Z,13.58
2019-04-21T20:02:32.355Z,15.88
2019-04-21T20:05:07.006Z,13.68
2019-04-21T20:07:49.452Z,13.55
2019-04-21T20:10:27.013Z,18.50
2019-04-21T20:12:53.702Z,13.90
2019-04-21T20:15:33.015Z,14.20
2019-04-21T20:17:57.549Z,12.78
2019-04-21T20:20:11.110Z,13.88
2019-04-21T20:22:44.069Z,12.47
2019-04-21T20:25:16.117Z,11.53
2019-04-21T20:27:54.553Z,15.78
2019-04-21T20:30:31.076Z,13.32
2019-04-21T20:33:04.572Z,11.33
2019-04-21T20:38:04.779Z,14.83
2019-04-21T20:40:31.803Z,15.23
2019-04-21T20:43:08.632Z,16.35
2019-04-21T20:45:41.722Z,15.80
2019-04-21T20:47:54.619Z,16.87
2019-04-21T20:50:36.376Z,11.68
2019-04-21T20:53:11.032Z,13.88
2019-04-21T20:55:39.488Z,12.28
2019-04-21T20:58:09.136Z,11.28
2019-04-21T21:01:03.007Z,12.65
2019-04-21T21:03:23.403Z,13.28
2019-04-21T21:05:45.791Z,12.70
2019-04-21T21:08:26.036Z,11.43
2019-04-21T21:10:43.935Z,10.78
2019-04-21T21:13:26.696Z,14.10
2019-04-21T21:16:06.189Z,12.30
2019-04-21T21:18:38.021Z,10.93
2019-04-21T21:20:54.142Z,12.65
2019-04-21T21:23:20.434Z,12.65
2019-04-21T21:25:57.311Z,13.00
2019-04-21T21:28:29.083Z,14.95
2019-04-21T21:30:59.384Z,13.35
2019-04-21T21:33:30.715Z,12.33
2019-04-21T21:36:06.450Z,13.50
2019-04-21T21:38:31.532Z,13.93
2019-04-21T21:40:56.936Z,12.43
2019-04-21T21:43:22.897Z,15.28
2019-04-21T21:45:55.571Z,13.80
2019-04-21T21:48:31.705Z,15.55
2019-04-21T21:51:02.262Z,11.57
2019-04-21T21:53:25.484Z,12.07
2019-04-21T21:55:53.692Z,12.82
2019-04-21T21:58:28.635Z,12.35
2019-04-21T22:00:58.486Z,16.20
2019-04-21T22:03:33.019Z,10.72
2019-04-21T22:06:02.351Z,12.78
2019-04-21T22:08:28.268Z,11.63
2019-04-21T22:10:58.982Z,10.85
2019-04-21T22:13:39.960Z,11.73
2019-04-21T22:16:06.049Z,12.58
2019-04-21T22:18:43.944Z,12.05
2019-04-21T22:21:13.877Z,14.07
2019-04-21T22:23:46.974Z,11.20
2019-04-21T22:26:05.223Z,11.38
2019-04-21T22:28:35.950Z,13.60
2019-04-21T22:31:13.161Z,11.53
2019-04-21T22:33:41.928Z,13.15
2019-04-21T22:36:21.027Z,11.28
2019-04-21T22:38:54.918Z,10.32
2019-04-21T22:41:22.068Z,11.45
2019-04-21T22:43:46.141Z,13.78
2019-04-21T22:46:15.471Z,11.35
2019-04-21T22:48:52.248Z,10.08
2019-04-21T22:51:23.981Z,10.85
2019-04-21T22:53:50.781Z,13.53
2019-04-21T22:56:24.454Z,10.00
2019-04-21T22:58:51.079Z,13.50
2019-04-21T23:01:30.096Z,11.25
2019-04-21T23:03:56.922Z,10.45
2019-04-21T23:06:27.542Z,10.40
2019-04-21T23:08:55.126Z,12.37
2019-04-21T23:11:29.238Z,9.68
2019-04-21T23:14:03.754Z,10.15
2019-04-21T23:16:32.225Z,10.18
2019-04-21T23:19:17.264Z,10.63
2019-04-21T23:21:51.232Z,11.53
2019-04-21T23:24:26.144Z,10.50
2019-04-21T23:26:50.730Z,9.85
2019-04-21T23:29:25.725Z,10.45
2019-04-21T23:31:51.797Z,13.95
2019-04-21T23:34:06.294Z,8.68
2019-04-21T23:36:41.021Z,8.80
2019-04-21T23:39:19.516Z,8.45
2019-04-21T23:41:42.395Z,8.40
2019-04-21T23:44:13.689Z,8.55
2019-04-21T23:46:42.625Z,9.58
2019-04-21T23:49:23.146Z,10.72
2019-04-21T23:51:51.163Z,8.80
2019-04-21T23:54:15.611Z,10.88
2019-04-21T23:56:47.540Z,9.88
2019-04-21T23:59:17.973Z,7.47
